createdAt,value
2022-10-22T00:00:43.632Z,97643.97
2022-10-22T00:03:10.316Z,97621.59
2022-10-22T00:05:37.027Z,97628.56
2022-10-22T00:08:03.703Z,97607.50
2022-10-22T00:10:30.404Z,97634.97
2022-10-22T00:12:57.007Z,97603.72
2022-10-22T00:15:27.049Z,97596.47
2022-10-22T00:17:56.701Z,97619.47
2022-10-22T00:20:25.570Z,97644.63
2022-10-22T00:25:18.856Z,97611.16
2022-10-22T00:27:45.486Z,97622.94
2022-10-22T00:30:12.809Z,97617.06
2022-10-22T00:32:39.698Z,97624.84
2022-10-22T00:35:06.923Z,97604.16
2022-10-22T00:37:33.544Z,97632.69
2022-10-22T00:40:00.188Z,97633.72
2022-10-22T00:42:30.387Z,97628.09
2022-10-22T00:45:03.113Z,97646.25
2022-10-22T00:47:39.073Z,97649.16
2022-10-22T00:50:09.724Z,97619.41
2022-10-22T00:52:36.807Z,97622.47
2022-10-22T00:55:04.354Z,97653.91
2022-10-22T00:57:31.057Z,97629.88
2022-10-22T00:59:58.452Z,97621.72
2022-10-22T01:02:27.677Z,97622.47
2022-10-22T01:04:54.278Z,97661.56
2022-10-22T01:07:22.854Z,97637.22
2022-10-22T01:10:12.022Z,97685.25
2022-10-22T01:13:16.950Z,97680.25
2022-10-22T01:16:02.273Z,97676.16
2022-10-22T01:19:06.791Z,97680.69
2022-10-22T01:21:42.052Z,97677.47
2022-10-22T01:24:20.864Z,97682.34
2022-10-22T01:27:03.931Z,97681.13
2022-10-22T01:29:35.070Z,97682.63
2022-10-22T01:32:07.294Z,97689.25
2022-10-22T01:34:35.120Z,97679.09
2022-10-22T01:37:03.119Z,97649.56
2022-10-22T01:39:36.870Z,97702.13
2022-10-22T01:42:04.279Z,97695.63
2022-10-22T01:44:33.841Z,97695.59
2022-10-22T01:47:31.481Z,97704.16
2022-10-22T01:50:10.346Z,97703.28
2022-10-22T01:52:57.101Z,97684.16
2022-10-22T01:55:45.252Z,97689.06
2022-10-22T01:58:23.927Z,97698.81
2022-10-22T02:01:22.641Z,97675.84
2022-10-22T02:04:10.451Z,97693.94
2022-10-22T02:06:40.953Z,97672.59
2022-10-22T02:09:09.438Z,97673.75
2022-10-22T02:11:36.448Z,97674.56
2022-10-22T02:14:05.348Z,97685.97
2022-10-22T02:16:38.630Z,97664.44
2022-10-22T02:19:14.583Z,97693.25
2022-10-22T02:21:41.322Z,97677.50
2022-10-22T02:24:08.144Z,97685.25
2022-10-22T02:26:51.440Z,97637.47
2022-10-22T02:29:33.297Z,97675.13
2022-10-22T02:32:05.956Z,97665.25
2022-10-22T02:34:35.341Z,97685.72
2022-10-22T02:37:04.257Z,97684.69
2022-10-22T02:39:36.234Z,97682.44
2022-10-22T02:42:04.090Z,97703.34
2022-10-22T02:44:33.423Z,97701.13
2022-10-22T02:47:00.478Z,97679.97
2022-10-22T02:49:28.220Z,97667.44
2022-10-22T02:51:54.762Z,97681.81
2022-10-22T02:54:21.370Z,97690.03
2022-10-22T02:56:47.923Z,97709.72
2022-10-22T02:59:14.518Z,97692.09
2022-10-22T03:01:41.173Z,97686.75
2022-10-22T03:04:07.788Z,97688.38
2022-10-22T03:06:37.463Z,97678.50
2022-10-22T03:09:07.064Z,97695.78
2022-10-22T03:11:36.525Z,97691.88
2022-10-22T03:14:06.512Z,97724.09
2022-10-22T03:16:35.042Z,97687.97
2022-10-22T03:19:04.066Z,97694.31
2022-10-22T03:21:53.234Z,97710.97
2022-10-22T03:24:24.106Z,97737.06
2022-10-22T03:26:52.211Z,97738.53
2022-10-22T03:29:22.172Z,97705.66
2022-10-22T03:31:48.757Z,97699.06
2022-10-22T03:34:15.945Z,97703.41
2022-10-22T03:36:42.581Z,97742.63
2022-10-22T03:39:12.732Z,97725.16
2022-10-22T03:41:39.546Z,97739.94
2022-10-22T03:44:09.653Z,97741.19
2022-10-22T03:46:39.165Z,97731.53
2022-10-22T03:49:08.874Z,97725.59
2022-10-22T03:51:38.699Z,97703.81
2022-10-22T03:54:08.339Z,97713.47
2022-10-22T03:56:38.415Z,97760.50
2022-10-22T03:59:08.322Z,97745.47
2022-10-22T04:01:37.566Z,97764.34
2022-10-22T04:04:04.179Z,97764.75
2022-10-22T04:06:31.028Z,97755.31
2022-10-22T04:08:57.750Z,97766.16
2022-10-22T04:11:24.369Z,97751.41
2022-10-22T04:13:51.000Z,97720.16
2022-10-22T04:16:20.442Z,97763.09
2022-10-22T04:18:49.132Z,97743.56
2022-10-22T04:21:19.787Z,97768.66
2022-10-22T04:23:51.280Z,97783.44
2022-10-22T04:26:18.928Z,97779.50
2022-10-22T04:28:46.520Z,97748.06
2022-10-22T04:31:16.608Z,97792.28
2022-10-22T04:33:43.369Z,97776.66
2022-10-22T04:36:12.023Z,97787.69
2022-10-22T04:38:43.070Z,97768.78
2022-10-22T04:41:19.683Z,97741.84
2022-10-22T04:43:46.888Z,97758.44
2022-10-22T04:46:15.925Z,97770.75
2022-10-22T04:48:44.632Z,97792.34
2022-10-22T04:51:16.735Z,97764.03
2022-10-22T04:53:44.753Z,97791.72
2022-10-22T04:56:21.781Z,97797.97
2022-10-22T04:58:49.855Z,97763.91
2022-10-22T05:01:22.092Z,97794.06
2022-10-22T05:03:50.497Z,97789.00
2022-10-22T05:06:17.337Z,97772.34
2022-10-22T05:08:44.521Z,97776.88
2022-10-22T05:11:20.052Z,97796.38
2022-10-22T05:13:47.058Z,97787.06
2022-10-22T05:16:14.278Z,97791.94
2022-10-22T05:18:45.506Z,97796.66
2022-10-22T05:21:17.730Z,97801.78
2022-10-22T05:23:45.783Z,97775.75
2022-10-22T05:26:19.066Z,97802.06
2022-10-22T05:28:46.987Z,97809.06
2022-10-22T05:31:14.327Z,97798.41
2022-10-22T05:33:42.993Z,97753.97
2022-10-22T05:36:13.515Z,97783.66
2022-10-22T05:38:42.774Z,97801.94
2022-10-22T05:41:24.125Z,97808.72
2022-10-22T05:43:51.206Z,97813.16
2022-10-22T05:46:22.905Z,97814.22
2022-10-22T05:48:58.351Z,97817.59
2022-10-22T05:51:26.397Z,97815.25
2022-10-22T05:53:59.427Z,97795.75
2022-10-22T05:56:28.089Z,97821.38
2022-10-22T05:58:55.006Z,97823.22
2022-10-22T06:01:27.480Z,97827.03
2022-10-22T06:03:56.400Z,97807.72
2022-10-22T06:06:34.750Z,97823.13
2022-10-22T06:09:05.965Z,97820.88
2022-10-22T06:11:35.099Z,97826.25
2022-10-22T06:14:02.061Z,97819.44
2022-10-22T06:16:30.438Z,97822.44
2022-10-22T06:19:00.040Z,97823.31
2022-10-22T06:21:26.550Z,97821.41
2022-10-22T06:23:55.291Z,97821.72
2022-10-22T06:26:21.766Z,97821.97
2022-10-22T06:28:48.322Z,97815.59
2022-10-22T06:31:14.976Z,97817.81
2022-10-22T06:33:45.028Z,97823.16
2022-10-22T06:36:19.020Z,97835.22
2022-10-22T06:38:45.806Z,97834.16
2022-10-22T06:41:15.655Z,97832.00
2022-10-22T06:43:47.094Z,97837.25
2022-10-22T06:46:18.993Z,97843.16
2022-10-22T06:48:57.225Z,97831.94
2022-10-22T06:51:24.312Z,97841.56
2022-10-22T06:53:51.055Z,97854.75
2022-10-22T06:56:20.706Z,97851.03
2022-10-22T06:58:51.115Z,97864.00
2022-10-22T07:01:19.973Z,97854.75
2022-10-22T07:03:46.563Z,97857.22
2022-10-22T07:06:14.750Z,97860.53
2022-10-22T07:08:42.629Z,97877.03
2022-10-22T07:11:18.134Z,97872.34
2022-10-22T07:13:45.766Z,97865.88
2022-10-22T07:16:12.781Z,97873.53
2022-10-22T07:18:43.149Z,97880.16
2022-10-22T07:21:14.704Z,97877.81
2022-10-22T07:23:44.680Z,97876.19
2022-10-22T07:26:14.650Z,97861.97
2022-10-22T07:28:44.235Z,97877.28
2022-10-22T07:31:15.285Z,97883.38
2022-10-22T07:33:41.914Z,97874.75
2022-10-22T07:36:11.976Z,97891.75
2022-10-22T07:38:40.628Z,97891.84
2022-10-22T07:41:07.144Z,97900.78
2022-10-22T07:43:33.692Z,97906.19
2022-10-22T07:46:00.465Z,97888.06
2022-10-22T07:48:32.965Z,97871.09
2022-10-22T07:50:59.567Z,97884.44
2022-10-22T07:53:32.851Z,97890.06
2022-10-22T07:55:59.607Z,97912.88
2022-10-22T07:58:26.403Z,97899.91
2022-10-22T08:00:57.015Z,97910.97
2022-10-22T08:03:23.632Z,97886.22
2022-10-22T08:05:51.724Z,97914.69
2022-10-22T08:08:19.566Z,97911.56
2022-10-22T08:10:47.737Z,97918.38
2022-10-22T08:13:15.053Z,97915.78
2022-10-22T08:15:50.466Z,97895.16
2022-10-22T08:18:19.013Z,97920.63
2022-10-22T08:20:45.960Z,97920.13
2022-10-22T08:23:13.513Z,97884.84
2022-10-22T08:25:42.472Z,97915.75
2022-10-22T08:28:12.777Z,97914.50
2022-10-22T08:30:45.082Z,97912.84
2022-10-22T08:33:15.236Z,97909.63
2022-10-22T08:35:49.863Z,97919.38
2022-10-22T08:38:16.959Z,97915.59
2022-10-22T08:43:38.695Z,97904.22
2022-10-22T08:46:40.252Z,97907.50
2022-10-22T08:49:17.864Z,97897.41
2022-10-22T08:51:45.239Z,97888.13
2022-10-22T08:54:41.958Z,97915.56
2022-10-22T08:57:09.011Z,97909.81
2022-10-22T09:00:02.126Z,97888.44
2022-10-22T09:02:38.525Z,97888.88
2022-10-22T09:05:27.577Z,97912.25
2022-10-22T09:07:55.483Z,97884.03
2022-10-22T09:10:27.477Z,97908.03
2022-10-22T09:12:54.356Z,97893.03
2022-10-22T09:15:21.886Z,97899.28
2022-10-22T09:18:14.311Z,97894.72
2022-10-22T09:20:56.766Z,97905.69
2022-10-22T09:23:29.104Z,97910.09
2022-10-22T09:25:57.087Z,97913.06
2022-10-22T09:28:24.213Z,97915.50
2022-10-22T09:30:51.124Z,97915.34
2022-10-22T09:33:27.637Z,97915.13
2022-10-22T09:35:57.532Z,97905.41
2022-10-22T09:38:32.221Z,97913.25
2022-10-22T09:41:00.943Z,97904.75
2022-10-22T09:43:27.432Z,97906.91
2022-10-22T09:46:03.084Z,97900.66
2022-10-22T09:48:36.577Z,97900.09
2022-10-22T09:51:18.161Z,97909.28
2022-10-22T09:53:56.185Z,97902.91
2022-10-22T09:56:37.956Z,97904.81
2022-10-22T09:59:04.946Z,97904.31
2022-10-22T10:01:35.099Z,97901.41
2022-10-22T10:04:17.467Z,97899.16
2022-10-22T10:06:45.125Z,97895.44
2022-10-22T10:09:16.939Z,97895.81
2022-10-22T10:11:51.961Z,97895.84
2022-10-22T10:14:30.834Z,97888.78
2022-10-22T10:17:12.131Z,97896.03
2022-10-22T10:20:15.132Z,97893.38
2022-10-22T10:23:03.114Z,97896.63
2022-10-22T10:26:14.486Z,97898.53
2022-10-22T10:28:52.073Z,97891.78
2022-10-22T10:31:43.276Z,97894.53
2022-10-22T10:34:43.628Z,97897.47
2022-10-22T10:37:26.785Z,97896.69
2022-10-22T10:40:05.102Z,97884.72
2022-10-22T10:42:44.912Z,97885.81
2022-10-22T10:45:29.852Z,97886.63
2022-10-22T10:48:12.719Z,97890.16
2022-10-22T10:50:54.230Z,97897.19
2022-10-22T10:53:43.816Z,97885.41
2022-10-22T10:56:19.645Z,97885.13
2022-10-22T10:59:01.581Z,97882.13
2022-10-22T11:01:42.226Z,97879.97
2022-10-22T11:04:31.610Z,97879.25
2022-10-22T11:07:11.148Z,97877.41
2022-10-22T11:09:50.907Z,97871.34
2022-10-22T11:12:23.818Z,97878.75
2022-10-22T11:15:12.784Z,97851.56
2022-10-22T11:17:46.245Z,97862.81
2022-10-22T11:20:28.078Z,97869.59
2022-10-22T11:23:22.187Z,97867.28
2022-10-22T11:25:50.556Z,97872.31
2022-10-22T11:28:26.034Z,97864.44
2022-10-22T11:31:00.320Z,97852.84
2022-10-22T11:33:32.311Z,97855.78
2022-10-22T11:36:01.674Z,97851.16
2022-10-22T11:38:30.689Z,97849.00
2022-10-22T11:41:07.258Z,97853.53
2022-10-22T11:43:55.766Z,97840.91
2022-10-22T11:46:22.608Z,97842.50
2022-10-22T11:49:26.600Z,97839.00
2022-10-22T11:52:23.407Z,97845.47
2022-10-22T11:54:54.593Z,97839.06
2022-10-22T11:57:26.987Z,97836.13
2022-10-22T11:59:58.533Z,97855.50
2022-10-22T12:02:27.933Z,97855.03
2022-10-22T12:05:22.485Z,97849.13
2022-10-22T12:07:57.107Z,97838.72
2022-10-22T12:10:34.447Z,97848.19
2022-10-22T12:13:22.935Z,97835.31
2022-10-22T12:15:53.353Z,97827.25
2022-10-22T12:18:25.977Z,97832.84
2022-10-22T12:20:55.381Z,97819.19
2022-10-22T12:23:28.718Z,97813.19
2022-10-22T12:25:55.604Z,97813.06
2022-10-22T12:28:22.878Z,97796.72
2022-10-22T12:30:49.701Z,97807.25
2022-10-22T12:33:23.496Z,97781.06
2022-10-22T12:35:54.052Z,97798.97
2022-10-22T12:38:23.474Z,97779.16
2022-10-22T12:40:51.486Z,97788.06
2022-10-22T12:43:23.868Z,97789.72
2022-10-22T12:45:51.426Z,97764.69
2022-10-22T12:48:22.544Z,97772.06
2022-10-22T12:50:52.528Z,97777.13
2022-10-22T12:53:24.012Z,97777.84
2022-10-22T12:55:53.168Z,97775.19
2022-10-22T12:58:25.671Z,97753.97
2022-10-22T13:00:57.513Z,97772.00
2022-10-22T13:03:28.463Z,97759.03
2022-10-22T13:05:55.055Z,97753.16
2022-10-22T13:08:26.792Z,97746.78
2022-10-22T13:10:55.436Z,97763.75
2022-10-22T13:13:34.018Z,97746.91
2022-10-22T13:16:33.355Z,97737.75
2022-10-22T13:19:00.005Z,97732.47
2022-10-22T13:21:33.919Z,97735.88
2022-10-22T13:24:02.915Z,97731.06
2022-10-22T13:26:37.681Z,97732.72
2022-10-22T13:29:12.074Z,97729.34
2022-10-22T13:31:50.123Z,97728.22
2022-10-22T13:34:25.678Z,97717.41
2022-10-22T13:36:52.615Z,97714.03
2022-10-22T13:39:24.204Z,97720.09
2022-10-22T13:41:51.795Z,97717.47
2022-10-22T13:44:19.857Z,97710.91
2022-10-22T13:46:49.571Z,97698.28
2022-10-22T13:49:23.409Z,97685.22
2022-10-22T13:51:51.336Z,97698.16
2022-10-22T13:54:23.776Z,97693.72
2022-10-22T13:56:50.336Z,97693.53
2022-10-22T13:59:22.818Z,97705.09
2022-10-22T14:01:51.011Z,97699.44
2022-10-22T14:04:18.181Z,97703.63
2022-10-22T14:06:45.304Z,97691.59
2022-10-22T14:09:16.153Z,97691.41
2022-10-22T14:11:43.539Z,97685.28
2022-10-22T14:14:14.235Z,97700.81
2022-10-22T14:16:41.032Z,97682.03
2022-10-22T14:19:14.517Z,97691.84
2022-10-22T14:21:41.020Z,97687.22
2022-10-22T14:24:12.921Z,97704.84
2022-10-22T14:26:40.083Z,97674.00
2022-10-22T14:29:10.980Z,97681.03
2022-10-22T14:31:43.394Z,97698.91
2022-10-22T14:34:13.174Z,97690.50
2022-10-22T14:36:39.713Z,97684.59
2022-10-22T14:39:06.316Z,97652.00
2022-10-22T14:41:35.205Z,97661.81
2022-10-22T14:44:01.788Z,97650.00
2022-10-22T14:46:28.501Z,97667.91
2022-10-22T14:48:55.034Z,97664.22
2022-10-22T14:51:22.062Z,97673.22
2022-10-22T14:53:51.547Z,97659.19
2022-10-22T14:56:24.636Z,97664.44
2022-10-22T14:58:51.484Z,97672.59
2022-10-22T15:01:22.017Z,97630.31
2022-10-22T15:03:51.707Z,97649.91
2022-10-22T15:06:21.164Z,97657.28
2022-10-22T15:08:50.885Z,97667.59
2022-10-22T15:11:50.491Z,97663.84
2022-10-22T15:14:19.452Z,97649.44
2022-10-22T15:16:46.031Z,97645.38
2022-10-22T15:19:12.633Z,97661.38
2022-10-22T15:21:39.558Z,97669.22
2022-10-22T15:24:07.312Z,97667.00
2022-10-22T15:26:34.348Z,97672.16
2022-10-22T15:29:03.746Z,97666.69
2022-10-22T15:31:52.128Z,97650.72
2022-10-22T15:34:23.492Z,97675.41
2022-10-22T15:36:58.451Z,97648.88
2022-10-22T15:39:25.758Z,97649.97
2022-10-22T15:41:53.121Z,97664.38
2022-10-22T15:44:28.776Z,97666.78
2022-10-22T15:46:56.041Z,97671.66
2022-10-22T15:49:27.353Z,97663.19
2022-10-22T15:51:54.747Z,97666.91
2022-10-22T15:54:28.974Z,97661.34
2022-10-22T15:56:59.999Z,97648.25
2022-10-22T15:59:26.594Z,97644.47
2022-10-22T16:01:53.199Z,97658.13
2022-10-22T16:04:21.964Z,97656.25
2022-10-22T16:06:54.848Z,97660.53
2022-10-22T16:09:27.397Z,97657.72
2022-10-22T16:11:55.143Z,97659.09
2022-10-22T16:14:24.103Z,97648.19
2022-10-22T16:16:52.940Z,97671.22
2022-10-22T16:19:24.267Z,97655.22
2022-10-22T16:21:55.439Z,97658.69
2022-10-22T16:24:24.865Z,97625.84
2022-10-22T16:26:54.152Z,97636.41
2022-10-22T16:29:23.075Z,97662.97
2022-10-22T16:31:49.599Z,97650.13
2022-10-22T16:34:16.161Z,97660.34
2022-10-22T16:36:44.158Z,97648.88
2022-10-22T16:39:10.725Z,97653.75
2022-10-22T16:41:37.246Z,97645.00
2022-10-22T16:44:07.765Z,97648.53
2022-10-22T16:46:38.334Z,97647.84
2022-10-22T16:49:06.191Z,97644.09
2022-10-22T16:51:33.342Z,97644.47
2022-10-22T16:53:59.904Z,97628.47
2022-10-22T16:56:26.955Z,97639.44
2022-10-22T16:58:57.621Z,97642.38
2022-10-22T17:01:29.748Z,97628.00
2022-10-22T17:03:59.040Z,97646.09
2022-10-22T17:06:26.073Z,97645.28
2022-10-22T17:08:55.637Z,97639.88
2022-10-22T17:11:29.857Z,97656.06
2022-10-22T17:13:56.399Z,97656.91
2022-10-22T17:16:27.771Z,97661.66
2022-10-22T17:18:58.308Z,97653.69
2022-10-22T17:21:28.002Z,97647.81
2022-10-22T17:23:58.018Z,97659.16
2022-10-22T17:26:27.993Z,97648.78
2022-10-22T17:28:57.630Z,97621.72
2022-10-22T17:31:28.126Z,97611.78
2022-10-22T17:33:57.724Z,97653.47
2022-10-22T17:36:31.926Z,97662.00
2022-10-22T17:39:05.399Z,97661.19
2022-10-22T17:41:34.760Z,97659.66
2022-10-22T17:44:06.241Z,97646.38
2022-10-22T17:46:33.027Z,97655.72
2022-10-22T17:49:03.829Z,97633.50
2022-10-22T17:51:31.314Z,97665.84
2022-10-22T17:53:58.030Z,97666.81
2022-10-22T17:56:30.218Z,97634.41
2022-10-22T17:59:02.731Z,97634.66
2022-10-22T18:01:31.583Z,97672.53
2022-10-22T18:04:07.814Z,97639.19
2022-10-22T18:06:35.156Z,97662.91
2022-10-22T18:09:06.379Z,97669.94
2022-10-22T18:11:34.438Z,97669.78
2022-10-22T18:14:01.073Z,97639.44
2022-10-22T18:16:28.090Z,97663.97
2022-10-22T18:18:57.536Z,97665.94
2022-10-22T18:21:29.417Z,97658.00
2022-10-22T18:23:59.339Z,97663.34
2022-10-22T18:26:30.039Z,97665.81
2022-10-22T18:29:00.430Z,97663.97
2022-10-22T18:31:30.464Z,97659.75
2022-10-22T18:34:00.071Z,97626.31
2022-10-22T18:36:30.094Z,97649.06
2022-10-22T18:38:59.581Z,97633.78
2022-10-22T18:41:28.968Z,97633.16
2022-10-22T18:43:59.075Z,97638.81
2022-10-22T18:46:39.712Z,97636.75
2022-10-22T18:49:10.442Z,97639.31
2022-10-22T18:51:40.078Z,97653.63
2022-10-22T18:54:22.221Z,97676.41
2022-10-22T18:56:50.144Z,97689.22
2022-10-22T18:59:22.389Z,97672.69
2022-10-22T19:02:00.044Z,97638.88
2022-10-22T19:04:36.862Z,97683.78
2022-10-22T19:09:35.787Z,97649.50
2022-10-22T19:12:02.652Z,97657.00
2022-10-22T19:14:32.725Z,97642.16
2022-10-22T19:17:02.601Z,97659.97
2022-10-22T19:19:32.359Z,97652.53
2022-10-22T19:22:02.080Z,97654.06
2022-10-22T19:24:31.702Z,97641.34
2022-10-22T19:27:00.712Z,97664.34
2022-10-22T19:29:33.379Z,97655.47
2022-10-22T19:32:03.104Z,97665.69
2022-10-22T19:34:33.528Z,97671.06
2022-10-22T19:37:04.128Z,97653.19
2022-10-22T19:39:30.661Z,97663.34
2022-10-22T19:42:00.073Z,97663.38
2022-10-22T19:44:26.669Z,97623.41
2022-10-22T19:46:53.308Z,97660.56
2022-10-22T19:49:22.164Z,97624.91
2022-10-22T19:51:49.672Z,97651.69
2022-10-22T19:54:18.596Z,97639.28
2022-10-22T19:56:46.430Z,97652.44
2022-10-22T19:59:15.219Z,97635.78
2022-10-22T20:01:41.860Z,97649.09
2022-10-22T20:04:14.216Z,97633.06
2022-10-22T20:06:40.762Z,97635.41
2022-10-22T20:09:07.516Z,97639.69
2022-10-22T20:11:34.325Z,97648.00
2022-10-22T20:14:01.092Z,97614.16
2022-10-22T20:16:32.414Z,97648.44
2022-10-22T20:19:04.759Z,97624.78
2022-10-22T20:21:34.832Z,97636.41
2022-10-22T20:24:02.410Z,97606.25
2022-10-22T20:26:32.325Z,97593.69
2022-10-22T20:29:01.670Z,97622.59
2022-10-22T20:31:31.378Z,97624.03
2022-10-22T20:34:04.188Z,97607.38
2022-10-22T20:36:33.756Z,97619.94
2022-10-22T20:39:08.647Z,97617.03
2022-10-22T20:41:38.189Z,97636.06
2022-10-22T20:44:09.736Z,97610.19
2022-10-22T20:46:36.541Z,97633.50
2022-10-22T20:49:09.875Z,97617.06
2022-10-22T20:51:37.260Z,97621.75
2022-10-22T20:54:06.292Z,97619.06
2022-10-22T20:56:35.225Z,97613.56
2022-10-22T20:59:05.719Z,97613.31
2022-10-22T21:01:50.391Z,97623.81
2022-10-22T21:04:18.504Z,97586.28
2022-10-22T21:06:45.354Z,97616.28
2022-10-22T21:09:13.812Z,97620.03
2022-10-22T21:11:42.781Z,97598.06
2022-10-22T21:14:11.177Z,97607.94
2022-10-22T21:16:41.187Z,97576.38
2022-10-22T21:19:07.777Z,97586.88
2022-10-22T21:21:37.760Z,97610.53
2022-10-22T21:24:07.890Z,97578.56
2022-10-22T21:26:42.940Z,97574.72
2022-10-22T21:29:12.262Z,97600.22
2022-10-22T21:31:40.447Z,97629.63
2022-10-22T21:34:07.378Z,97621.25
2022-10-22T21:36:37.001Z,97586.66
2022-10-22T21:39:07.259Z,97626.28
2022-10-22T21:41:38.328Z,97618.50
2022-10-22T21:44:07.880Z,97618.09
2022-10-22T21:46:37.453Z,97587.53
2022-10-22T21:49:07.956Z,97599.88
2022-10-22T21:51:38.384Z,97610.19
2022-10-22T21:54:08.191Z,97584.44
2022-10-22T21:56:36.782Z,97589.75
2022-10-22T21:59:08.658Z,97586.59
2022-10-22T22:01:38.471Z,97594.56
2022-10-22T22:04:06.662Z,97576.78
2022-10-22T22:06:36.246Z,97598.16
2022-10-22T22:09:07.791Z,97558.53
2022-10-22T22:11:37.600Z,97563.97
2022-10-22T22:14:04.218Z,97587.53
2022-10-22T22:16:33.331Z,97566.47
2022-10-22T22:21:30.805Z,97586.19
2022-10-22T22:23:58.180Z,97558.53
2022-10-22T22:26:29.643Z,97564.03
2022-10-22T22:28:58.547Z,97610.84
2022-10-22T22:31:28.205Z,97572.16
2022-10-22T22:34:05.822Z,97602.19
2022-10-22T22:36:38.771Z,97587.75
2022-10-22T22:39:08.996Z,97576.66
2022-10-22T22:41:35.542Z,97573.53
2022-10-22T22:44:02.305Z,97567.41
2022-10-22T22:46:29.496Z,97559.66
2022-10-22T22:48:56.157Z,97572.75
2022-10-22T22:51:23.110Z,97576.47
2022-10-22T22:53:50.025Z,97559.28
2022-10-22T22:56:22.829Z,97573.44
2022-10-22T22:58:49.539Z,97584.31
2022-10-22T23:01:16.288Z,97576.16
2022-10-22T23:03:44.444Z,97575.91
2022-10-22T23:06:11.833Z,97552.34
2022-10-22T23:08:42.263Z,97568.47
2022-10-22T23:11:12.371Z,97562.78
2022-10-22T23:13:42.018Z,97568.34
2022-10-22T23:16:17.860Z,97528.63
2022-10-22T23:18:46.280Z,97525.13
2022-10-22T23:21:17.162Z,97548.53
2022-10-22T23:23:49.405Z,97564.97
2022-10-22T23:26:19.626Z,97547.25
2022-10-22T23:28:46.870Z,97554.84
2022-10-22T23:31:15.426Z,97527.03
2022-10-22T23:33:45.752Z,97521.00
2022-10-22T23:36:12.830Z,97527.25
2022-10-22T23:38:42.380Z,97527.56
2022-10-22T23:41:12.804Z,97540.66
2022-10-22T23:43:41.535Z,97516.50
2022-10-22T23:46:11.675Z,97532.09
2022-10-22T23:48:39.362Z,97534.19
2022-10-22T23:51:17.390Z,97510.72
2022-10-22T23:53:45.141Z,97503.22
2022-10-22T23:56:17.463Z,97504.56
2022-10-22T23:58:44.850Z,97523.94
